Time;durP1;ratioP1;P1;durP2;ratioP2;P2;SDS_P1;SDS_P2;PMS_P1;PMS_P2;Temp;Humidity;BMP_temperature;BMP_pressure;BME280_temperature;BME280_humidity;BME280_pressure;Samples;Min_cycle;Max_cycle;Signal;HPM_P1;HPM_P2
2023/08/07 00:02:22;;;;;;;8.88;1.73;;;;;;;17.80;68.76;101517.41;5009176;28;20404;-46
2023/08/07 00:04:47;;;;;;;6.57;1.90;;;;;;;17.74;68.07;101530.63;5009730;28;20096;-45
2023/08/07 00:07:12;;;;;;;8.32;2.20;;;;;;;17.54;68.34;101521.03;5009403;28;20045;-44
2023/08/07 00:09:38;;;;;;;8.00;1.80;;;;;;;17.62;68.59;101528.06;5010193;28;20057;-43
2023/08/07 00:12:03;;;;;;;7.93;1.90;;;;;;;17.44;68.48;101512.31;5007885;28;20330;-44
2023/08/07 00:14:29;;;;;;;7.07;1.73;;;;;;;17.38;68.14;101520.25;5007642;28;20452;-47
2023/08/07 00:16:54;;;;;;;10.13;2.00;;;;;;;17.71;69.62;101519.22;5009870;28;20038;-43
2023/08/07 00:19:19;;;;;;;10.05;2.15;;;;;;;17.45;71.87;101514.03;5009051;28;20084;-45
2023/08/07 00:21:45;;;;;;;11.48;1.95;;;;;;;17.39;72.88;101514.06;5009684;28;20124;-48
2023/08/07 00:24:10;;;;;;;9.60;2.13;;;;;;;17.64;72.21;101509.56;5008889;28;20127;-43
2023/08/07 00:26:35;;;;;;;9.60;2.13;;;;;;;17.68;72.50;101504.31;5009770;28;20125;-43
2023/08/07 00:29:01;;;;;;;11.25;2.05;;;;;;;17.89;71.72;101516.47;5009774;28;20412;-43
2023/08/07 00:31:30;;;;;;;12.57;2.25;;;;;;;17.57;72.67;101516.59;5009478;28;20060;-44
2023/08/07 00:33:56;;;;;;;9.57;2.38;;;;;;;17.12;75.44;101538.78;5008913;28;20396;-47
2023/08/07 00:36:21;;;;;;;8.82;2.20;;;;;;;16.95;77.26;101549.34;5009369;28;20041;-42
2023/08/07 00:38:46;;;;;;;11.02;2.20;;;;;;;16.95;77.48;101533.56;5013426;28;20069;-43
2023/08/07 00:41:12;;;;;;;8.43;2.13;;;;;;;16.98;78.03;101545.81;5012811;28;20037;-45
2023/08/07 00:43:37;;;;;;;7.70;1.88;;;;;;;16.86;77.41;101533.56;5012944;28;20046;-44
2023/08/07 00:46:02;;;;;;;10.95;2.45;;;;;;;16.52;77.38;101537.97;5012720;28;20041;-44
2023/08/07 00:48:29;;;;;;;7.07;1.90;;;;;;;16.83;76.25;101536.19;5013125;28;20471;-44
2023/08/07 00:50:55;;;;;;;8.68;1.98;;;;;;;17.38;74.89;101530.78;5012957;28;20044;-48
2023/08/07 00:53:20;;;;;;;8.13;2.30;;;;;;;17.04;76.90;101535.28;5012034;28;20030;-47
2023/08/07 00:55:46;;;;;;;10.85;2.10;;;;;;;16.81;76.96;101545.84;5012849;28;20412;-43
2023/08/07 00:58:12;;;;;;;9.65;2.20;;;;;;;17.22;76.24;101551.03;5012361;28;20037;-43
2023/08/07 01:00:37;;;;;;;9.65;2.10;;;;;;;16.90;77.82;101543.19;5012646;28;20042;-44
2023/08/07 01:03:06;;;;;;;7.63;2.20;;;;;;;17.22;76.79;101542.25;5011873;28;20038;-46
2023/08/07 01:05:31;;;;;;;9.68;2.17;;;;;;;17.22;77.28;101537.84;5012705;28;20044;-45
2023/08/07 01:07:57;;;;;;;11.02;2.33;;;;;;;17.20;76.27;101531.69;5012815;28;20042;-42
2023/08/07 01:10:33;;;;;;;11.65;2.10;;;;;;;16.84;76.76;101543.22;5011838;28;20034;-43
2023/08/07 01:13:11;;;;;;;12.10;2.30;;;;;;;17.13;75.32;101535.25;5011818;28;20159;-45
2023/08/07 01:15:38;;;;;;;12.35;2.20;;;;;;;16.88;75.27;101537.06;5012573;28;20034;-45
2023/08/07 01:18:05;;;;;;;9.18;2.20;;;;;;;17.27;73.85;101540.47;5012269;28;20500;-43
2023/08/07 01:20:31;;;;;;;6.72;1.95;;;;;;;17.18;73.52;101544.03;5012676;28;20463;-46
2023/08/07 01:22:56;;;;;;;9.93;2.10;;;;;;;17.11;73.51;101547.56;5012512;28;20048;-45
2023/08/07 01:25:22;;;;;;;8.00;1.85;;;;;;;17.20;72.57;101544.88;5012546;28;20046;-43
2023/08/07 01:27:58;;;;;;;10.50;2.22;;;;;;;17.26;72.52;101536.94;5012673;28;20042;-43
2023/08/07 01:30:33;;;;;;;8.65;2.28;;;;;;;17.11;72.15;101538.75;5011758;28;20026;-45
2023/08/07 01:33:16;;;;;;;8.23;2.15;;;;;;;17.16;73.50;101555.44;5011573;28;20045;-44
2023/08/07 01:35:44;;;;;;;10.48;2.10;;;;;;;17.07;75.34;101555.47;5012068;28;20042;-44
2023/08/07 01:38:12;;;;;;;8.88;2.00;;;;;;;16.84;76.23;101553.75;5011779;28;20330;-45
2023/08/07 01:40:39;;;;;;;7.22;1.80;;;;;;;16.87;76.09;101560.78;5012042;28;20034;-47
2023/08/07 01:43:05;;;;;;;6.90;1.88;;;;;;;16.57;76.15;101559.91;5011069;28;20459;-43
2023/08/07 01:45:30;;;;;;;9.68;1.90;;;;;;;16.53;75.68;101539.69;5011011;28;20042;-47
2023/08/07 01:47:56;;;;;;;7.15;1.90;;;;;;;16.59;75.73;101539.72;5010947;28;20037;-46
2023/08/07 01:50:22;;;;;;;8.43;1.90;;;;;;;16.78;73.85;101543.22;5009591;28;20081;-44
2023/08/07 01:52:48;;;;;;;9.40;2.30;;;;;;;17.00;73.37;101542.31;5011489;28;20397;-45
2023/08/07 01:55:18;;;;;;;9.10;2.03;;;;;;;16.88;73.19;101547.59;5011605;28;20038;-44
2023/08/07 01:57:44;;;;;;;7.75;2.00;;;;;;;17.09;73.15;101548.41;5012234;28;20038;-48
2023/08/07 02:00:10;;;;;;;8.32;1.92;;;;;;;16.95;73.24;101548.47;5011186;28;20037;-43
2023/08/07 02:02:36;;;;;;;11.55;2.30;;;;;;;17.16;72.75;101543.13;5011131;28;20087;-46
2023/08/07 02:05:02;;;;;;;8.98;2.10;;;;;;;17.17;72.16;101544.91;5011460;28;20045;-44
2023/08/07 02:07:27;;;;;;;11.38;2.40;;;;;;;17.19;71.17;101547.53;5011460;28;20042;-44
2023/08/07 02:09:52;;;;;;;10.18;2.25;;;;;;;17.26;70.43;101542.22;5010073;28;20400;-44
2023/08/07 02:12:18;;;;;;;9.77;2.03;;;;;;;17.47;70.38;101549.19;5010618;28;20397;-44
2023/08/07 02:14:43;;;;;;;9.50;2.10;;;;;;;17.49;69.87;101534.25;5011616;28;20112;-44
2023/08/07 02:17:08;;;;;;;13.25;2.30;;;;;;;17.48;69.58;101548.31;5011140;28;20026;-45
2023/08/07 02:19:34;;;;;;;10.05;2.03;;;;;;;17.78;69.53;101547.31;5010548;28;20038;-43
2023/08/07 02:21:59;;;;;;;6.00;2.10;;;;;;;17.57;69.03;101542.09;5013263;28;20116;-45
2023/08/07 02:24:25;;;;;;;6.88;1.92;;;;;;;17.52;69.02;101551.78;5010535;28;20092;-48
2023/08/07 02:26:50;;;;;;;8.10;1.98;;;;;;;17.41;69.71;101550.09;5012252;28;20037;-44
2023/08/07 02:29:15;;;;;;;10.02;2.42;;;;;;;17.42;69.40;101545.69;5010637;28;20045;-44
2023/08/07 02:31:41;;;;;;;11.30;2.10;;;;;;;17.43;70.12;101553.59;5010056;28;20128;-44
2023/08/07 02:34:06;;;;;;;8.65;2.03;;;;;;;17.57;70.19;101558.78;5010438;28;20156;-43
2023/08/07 02:36:32;;;;;;;7.13;2.03;;;;;;;17.52;70.60;101563.22;5010879;28;20061;-42
2023/08/07 02:38:57;;;;;;;8.27;2.20;;;;;;;17.56;70.98;101566.72;5011012;28;20090;-43
2023/08/07 02:41:22;;;;;;;6.45;2.15;;;;;;;17.40;72.19;101571.16;5010565;28;20408;-43
2023/08/07 02:43:48;;;;;;;5.30;1.35;;;;;;;16.84;73.82;101566.03;5010328;28;20254;-44
2023/08/07 02:46:13;;;;;;;7.00;1.42;;;;;;;17.23;73.27;101560.69;5010537;28;20046;-43
2023/08/07 02:48:39;;;;;;;3.88;1.17;;;;;;;17.29;72.87;101563.31;5010920;28;20042;-44
2023/08/07 02:51:05;;;;;;;3.97;1.08;;;;;;;17.37;72.09;101558.91;5009476;28;20132;-47
2023/08/07 02:53:30;;;;;;;6.65;1.42;;;;;;;17.30;73.16;101554.53;5008024;28;20504;-44
2023/08/07 02:55:56;;;;;;;5.57;1.42;;;;;;;17.22;73.44;101560.69;5010720;28;20061;-44
2023/08/07 02:58:21;;;;;;;6.85;1.40;;;;;;;17.00;74.61;101558.13;5010375;28;20132;-43
2023/08/07 03:00:47;;;;;;;8.73;1.55;;;;;;;17.34;74.01;101555.38;5010284;28;20059;-44
2023/08/07 03:03:12;;;;;;;7.75;1.60;;;;;;;17.41;74.76;101558.00;5009671;28;20030;-44
2023/08/07 03:05:37;;;;;;;6.03;1.60;;;;;;;17.12;75.74;101557.22;5011069;28;20034;-45
2023/08/07 03:08:03;;;;;;;8.95;1.92;;;;;;;17.14;75.27;101558.06;5010459;28;20037;-48
2023/08/07 03:10:28;;;;;;;9.52;2.10;;;;;;;17.62;74.89;101549.16;5010358;28;20029;-45
2023/08/07 03:12:53;;;;;;;6.22;1.88;;;;;;;16.83;77.75;101565.16;5009793;28;20034;-44
2023/08/07 03:15:19;;;;;;;9.73;1.90;;;;;;;17.02;77.72;101547.56;5009760;28;20492;-43
2023/08/07 03:17:44;;;;;;;9.77;1.55;;;;;;;17.16;77.08;101553.69;5010346;28;20623;-43
2023/08/07 03:20:10;;;;;;;7.43;1.60;;;;;;;16.91;77.74;101549.34;5009911;28;20543;-47
2023/08/07 03:22:36;;;;;;;8.00;1.90;;;;;;;17.00;77.64;101565.16;5009802;28;20038;-46
2023/08/07 03:25:01;;;;;;;7.03;1.63;;;;;;;17.45;75.98;101565.00;5010296;28;20180;-43
2023/08/07 03:27:26;;;;;;;7.53;1.80;;;;;;;17.23;77.07;101562.44;5009772;28;20049;-44
2023/08/07 03:29:52;;;;;;;7.30;1.50;;;;;;;17.00;77.94;101555.50;5010283;28;20034;-45
2023/08/07 03:32:18;;;;;;;6.93;1.63;;;;;;;17.20;77.59;101559.84;5009351;28;20062;-44
2023/08/07 03:34:43;;;;;;;8.65;1.70;;;;;;;17.04;77.50;101554.59;5009918;28;20117;-43
2023/08/07 03:37:08;;;;;;;7.25;1.52;;;;;;;17.18;77.34;101556.31;5009593;28;20041;-43
2023/08/07 03:39:34;;;;;;;8.40;1.50;;;;;;;17.17;76.42;101549.28;5010092;28;20034;-48
2023/08/07 03:41:59;;;;;;;7.32;1.60;;;;;;;17.33;75.73;101549.22;5010098;28;20216;-44
2023/08/07 03:44:25;;;;;;;8.90;1.83;;;;;;;17.25;75.64;101551.03;5009171;28;20092;-46
2023/08/07 03:46:51;;;;;;;6.50;1.52;;;;;;;17.60;74.98;101548.28;5009847;28;20030;-43
2023/08/07 03:49:16;;;;;;;7.88;2.00;;;;;;;17.43;75.99;101552.72;5009151;28;20049;-45
2023/08/07 03:51:42;;;;;;;10.52;2.20;;;;;;;17.28;75.93;101555.41;5009999;28;20404;-43
2023/08/07 03:54:07;;;;;;;12.68;1.98;;;;;;;17.27;75.30;101558.91;5008749;28;20042;-45
2023/08/07 03:56:36;;;;;;;6.95;1.80;;;;;;;17.44;73.80;101525.47;5009690;28;20034;-41
2023/08/07 03:59:04;;;;;;;10.43;2.30;;;;;;;17.59;73.58;101551.75;5008287;28;20042;-45
2023/08/07 04:01:29;;;;;;;12.13;2.20;;;;;;;17.32;73.72;101549.25;5009365;28;20034;-47
2023/08/07 04:03:55;;;;;;;11.00;2.22;;;;;;;17.69;72.74;101547.34;5009190;28;20201;-44
2023/08/07 04:06:21;;;;;;;9.57;2.20;;;;;;;17.95;72.65;101558.63;5009214;28;20228;-43
2023/08/07 04:08:46;;;;;;;14.57;2.40;;;;;;;17.64;73.64;101554.41;5009432;28;20049;-46
2023/08/07 04:11:12;;;;;;;15.55;2.38;;;;;;;17.81;72.93;101548.16;5009496;28;20059;-48
2023/08/07 04:13:37;;;;;;;10.32;2.13;;;;;;;17.80;72.38;101556.09;5013236;28;20034;-42
2023/08/07 04:16:04;;;;;;;10.43;2.00;;;;;;;17.76;72.05;101552.59;5013440;28;20519;-42
2023/08/07 04:18:30;;;;;;;18.10;2.45;;;;;;;17.84;70.64;101565.72;5014041;28;20084;-45
2023/08/07 04:20:56;;;;;;;8.45;2.00;;;;;;;17.49;71.08;101555.34;5013636;28;20037;-43
2023/08/07 04:23:22;;;;;;;10.52;2.17;;;;;;;17.69;70.71;101548.22;5012535;28;20093;-43
2023/08/07 04:25:48;;;;;;;9.00;1.85;;;;;;;17.84;69.68;101563.97;5013795;28;20038;-44
2023/08/07 04:28:14;;;;;;;8.57;2.10;;;;;;;18.09;68.53;101566.47;5013066;28;20476;-42
2023/08/07 04:30:40;;;;;;;10.10;2.00;;;;;;;17.89;69.35;101570.97;5013447;28;20026;-43
2023/08/07 04:33:06;;;;;;;9.18;1.80;;;;;;;18.06;69.53;101571.75;5012470;28;20029;-44
2023/08/07 04:35:31;;;;;;;11.73;2.00;;;;;;;17.73;69.18;101565.81;5013423;28;20045;-49
2023/08/07 04:37:57;;;;;;;7.95;1.98;;;;;;;17.60;70.08;101564.09;5013303;28;20037;-44
2023/08/07 04:40:22;;;;;;;9.07;2.05;;;;;;;17.92;68.93;101574.50;5012950;28;20042;-44
2023/08/07 04:42:49;;;;;;;10.82;1.73;;;;;;;17.65;69.35;101582.53;5012992;28;20075;-46
2023/08/07 04:45:14;;;;;;;10.93;2.20;;;;;;;17.73;68.52;101591.28;5012823;28;20091;-42
2023/08/07 04:47:41;;;;;;;8.82;1.88;;;;;;;17.82;67.92;101576.28;5011881;28;20037;-42
2023/08/07 04:50:07;;;;;;;7.72;1.98;;;;;;;17.75;67.58;101584.22;5012956;28;20124;-43
2023/08/07 04:52:32;;;;;;;7.15;1.75;;;;;;;17.45;67.77;101582.56;5028132;28;20120;-43
2023/08/07 04:54:57;;;;;;;7.30;2.00;;;;;;;17.59;67.57;101590.44;5028236;28;20520;-43
2023/08/07 04:57:23;;;;;;;9.82;1.85;;;;;;;17.72;67.24;101586.91;5012906;28;20365;-42
2023/08/07 04:59:48;;;;;;;9.65;1.75;;;;;;;17.79;66.28;101597.41;5013601;28;20046;-42
2023/08/07 05:02:14;;;;;;;6.18;1.95;;;;;;;18.02;66.66;101591.13;5013810;28;20037;-41
2023/08/07 05:04:39;;;;;;;10.93;2.05;;;;;;;17.70;66.50;101586.00;4997555;28;20366;-43
2023/08/07 05:07:05;;;;;;;7.88;2.30;;;;;;;18.22;66.00;101592.78;5014753;28;20500;-43
2023/08/07 05:09:30;;;;;;;7.13;1.98;;;;;;;18.07;66.34;101590.22;5014069;28;20046;-46
2023/08/07 05:11:56;;;;;;;14.15;2.10;;;;;;;18.19;66.08;101592.78;5015226;28;20069;-43
2023/08/07 05:14:21;;;;;;;9.43;2.20;;;;;;;17.82;66.66;101600.03;5016383;28;20046;-46
2023/08/07 05:16:46;;;;;;;10.02;1.95;;;;;;;18.20;66.34;101601.56;5031567;28;20176;-45
2023/08/07 05:19:12;;;;;;;10.02;2.17;;;;;;;18.15;65.89;101606.91;5030796;28;20045;-55
2023/08/07 05:21:37;;;;;;;7.18;2.00;;;;;;;18.17;66.40;101606.91;5020373;28;20505;-45
2023/08/07 05:24:03;;;;;;;11.75;2.05;;;;;;;18.34;67.05;101610.28;5012618;28;20034;-42
2023/08/07 05:26:29;;;;;;;8.50;1.80;;;;;;;18.47;66.83;101609.31;5013905;28;20560;-42
2023/08/07 05:28:57;;;;;;;11.20;2.00;;;;;;;17.76;68.15;101607.97;5012226;28;20046;-45
2023/08/07 05:31:22;;;;;;;9.23;2.17;;;;;;;18.02;67.72;101604.31;5011775;28;20041;-43
2023/08/07 05:33:47;;;;;;;13.13;1.98;;;;;;;18.44;67.11;101613.72;5010538;28;20041;-44
2023/08/07 05:36:13;;;;;;;8.95;1.88;;;;;;;18.46;67.33;101617.25;5010837;28;20041;-42
2023/08/07 05:38:38;;;;;;;10.45;2.22;;;;;;;18.32;68.50;101624.38;5012504;28;20045;-44
2023/08/07 05:41:03;;;;;;;6.43;1.75;;;;;;;18.33;68.14;101619.09;5011868;28;20042;-46
2023/08/07 05:43:29;;;;;;;8.77;2.20;;;;;;;17.93;68.76;101620.22;5011777;28;20034;-43
2023/08/07 05:45:54;;;;;;;11.10;2.17;;;;;;;17.96;68.69;101612.28;5011903;28;20041;-48
2023/08/07 05:48:20;;;;;;;9.77;2.10;;;;;;;18.32;67.21;101627.00;5011574;28;20037;-42
2023/08/07 05:50:45;;;;;;;12.68;2.10;;;;;;;18.36;66.72;101619.06;5011039;28;20999;-43
2023/08/07 05:53:10;;;;;;;7.05;2.00;;;;;;;18.01;67.19;101613.13;5009833;28;20034;-51
2023/08/07 05:55:40;;;;;;;9.57;2.00;;;;;;;18.34;66.89;101625.25;5012095;28;20049;-43
2023/08/07 05:58:05;;;;;;;10.38;1.88;;;;;;;18.04;67.83;101621.91;5011399;28;20060;-44
2023/08/07 06:00:31;;;;;;;8.93;1.90;;;;;;;18.39;67.14;101626.09;5011640;28;20066;-48
2023/08/07 06:02:56;;;;;;;13.38;2.38;;;;;;;18.21;67.50;101619.16;5011370;28;20045;-43
2023/08/07 06:05:22;;;;;;;11.63;2.35;;;;;;;18.33;66.87;101632.28;5011023;28;20087;-43
2023/08/07 06:07:47;;;;;;;9.70;1.90;;;;;;;18.49;67.06;101638.34;5011644;28;20189;-46
2023/08/07 06:10:13;;;;;;;9.00;2.03;;;;;;;18.47;66.42;101642.78;5011290;28;20029;-47
2023/08/07 06:12:38;;;;;;;9.95;1.80;;;;;;;18.46;66.77;101641.88;5011081;28;20638;-51
2023/08/07 06:15:04;;;;;;;6.45;1.70;;;;;;;18.02;67.38;101647.41;5010968;28;20049;-44
2023/08/07 06:17:29;;;;;;;9.70;2.33;;;;;;;18.10;67.18;101650.03;5011592;28;20026;-47
2023/08/07 06:19:55;;;;;;;12.88;2.30;;;;;;;18.57;65.82;101647.13;5011352;28;20049;-44
2023/08/07 06:22:20;;;;;;;9.40;2.00;;;;;;;18.55;65.23;101659.44;5010990;28;20141;-45
2023/08/07 06:24:45;;;;;;;8.65;2.20;;;;;;;18.83;65.41;101655.72;5011805;28;20037;-44
2023/08/07 06:27:11;;;;;;;8.32;2.22;;;;;;;19.29;63.35;101660.59;5011513;28;20117;-45
2023/08/07 06:29:36;;;;;;;10.07;2.20;;;;;;;18.82;62.76;101647.81;5011429;28;20041;-46
2023/08/07 06:32:01;;;;;;;10.07;2.30;;;;;;;19.58;61.17;101639.19;5011210;28;20723;-45
2023/08/07 06:34:27;;;;;;;10.55;2.10;;;;;;;20.22;59.82;101652.44;5009762;28;20038;-45
2023/08/07 06:36:53;;;;;;;11.38;2.00;;;;;;;20.07;56.72;101664.09;5011122;28;20030;-44
2023/08/07 06:39:18;;;;;;;7.85;1.85;;;;;;;21.41;53.60;101662.03;5010396;28;20385;-43
2023/08/07 06:41:43;;;;;;;9.98;2.05;;;;;;;21.42;54.05;101664.66;5010161;28;20038;-45
2023/08/07 06:44:09;;;;;;;9.43;2.00;;;;;;;21.67;52.44;101661.53;5009701;28;20042;-48
2023/08/07 06:46:34;;;;;;;8.68;2.05;;;;;;;21.20;52.45;101659.78;5010818;28;20033;-44
2023/08/07 06:48:59;;;;;;;8.90;2.20;;;;;;;19.73;57.40;101668.97;5010861;28;20397;-44
2023/08/07 06:51:25;;;;;;;10.82;2.10;;;;;;;20.10;56.57;101666.72;5010409;28;20034;-47
2023/08/07 06:53:50;;;;;;;10.52;1.92;;;;;;;20.78;54.19;101672.84;5010272;28;20040;-45
2023/08/07 06:56:15;;;;;;;11.38;1.95;;;;;;;20.69;53.83;101682.69;5010164;28;20077;-48
2023/08/07 06:58:41;;;;;;;6.07;2.00;;;;;;;21.46;53.83;101676.09;5010747;28;20034;-42
2023/08/07 07:01:06;;;;;;;12.20;2.15;;;;;;;20.70;54.23;101679.13;5009277;28;20065;-45
2023/08/07 07:03:31;;;;;;;8.43;2.22;;;;;;;21.15;52.29;101680.16;5009334;28;20082;-48
2023/08/07 07:05:57;;;;;;;7.03;2.00;;;;;;;21.31;51.06;101679.91;5010683;28;20069;-44
2023/08/07 07:08:23;;;;;;;11.82;2.40;;;;;;;20.35;53.29;101683.19;5010111;28;20062;-48
2023/08/07 07:10:48;;;;;;;7.45;2.08;;;;;;;21.17;51.91;101683.69;5010869;28;20037;-46
2023/08/07 07:13:14;;;;;;;8.73;2.15;;;;;;;21.62;49.06;101690.81;5009541;28;20033;-45
2023/08/07 07:15:39;;;;;;;6.45;2.00;;;;;;;22.38;46.85;101688.38;5010551;28;20029;-47
2023/08/07 07:18:05;;;;;;;9.95;1.90;;;;;;;22.06;46.63;101691.75;5010565;28;20492;-47
2023/08/07 07:20:31;;;;;;;10.40;2.20;;;;;;;21.58;49.71;101691.78;5010652;28;20033;-46
2023/08/07 07:22:56;;;;;;;10.00;2.10;;;;;;;21.90;48.58;101691.13;5010110;28;20089;-43
2023/08/07 07:25:21;;;;;;;10.45;1.95;;;;;;;21.75;48.93;101688.78;5009503;28;20091;-42
2023/08/07 07:27:47;;;;;;;7.78;2.35;;;;;;;21.84;51.51;101688.59;5010181;28;20042;-45
2023/08/07 07:30:12;;;;;;;9.27;2.30;;;;;;;21.03;50.12;101690.09;5009789;28;20092;-46
2023/08/07 07:32:38;;;;;;;7.85;2.08;;;;;;;21.96;48.68;101701.66;5010504;28;20064;-44
2023/08/07 07:35:03;;;;;;;8.20;2.25;;;;;;;21.27;49.77;101706.50;5010622;28;20141;-51
2023/08/07 07:37:31;;;;;;;8.55;2.00;;;;;;;20.98;48.76;101701.69;5011269;28;20453;-44
2023/08/07 07:39:56;;;;;;;7.53;2.03;;;;;;;21.04;50.13;101706.88;5011066;28;20408;-44
2023/08/07 07:42:21;;;;;;;9.73;1.98;;;;;;;21.15;49.21;101704.03;5010139;28;20038;-47
2023/08/07 07:44:47;;;;;;;8.18;2.00;;;;;;;20.51;49.92;101705.91;5011032;28;20034;-44
2023/08/07 07:47:13;;;;;;;7.57;1.70;;;;;;;21.17;49.68;101704.91;5009320;28;20038;-44
2023/08/07 07:49:38;;;;;;;10.00;2.17;;;;;;;21.57;48.71;101707.72;5010466;28;20034;-44
2023/08/07 07:52:04;;;;;;;7.93;1.52;;;;;;;21.97;46.16;101707.84;5009797;28;20041;-44
2023/08/07 07:54:29;;;;;;;8.45;2.13;;;;;;;21.66;49.06;101724.34;5009642;28;20041;-46
2023/08/07 07:56:55;;;;;;;8.63;2.25;;;;;;;21.53;49.24;101725.47;5009776;28;20109;-46
2023/08/07 07:59:20;;;;;;;8.55;1.88;;;;;;;21.95;48.35;101742.41;5009390;28;20493;-46
2023/08/07 08:01:46;;;;;;;7.60;1.80;;;;;;;22.22;46.76;101722.38;5009583;28;20512;-44
2023/08/07 08:04:11;;;;;;;9.35;1.80;;;;;;;21.94;46.03;101723.81;5008689;28;20107;-50
2023/08/07 08:06:36;;;;;;;6.85;1.73;;;;;;;22.00;46.49;101732.56;5009805;28;20038;-46
2023/08/07 08:09:04;;;;;;;5.75;1.75;;;;;;;22.47;45.90;101734.22;5009763;28;20123;-44
2023/08/07 08:11:30;;;;;;;8.82;2.00;;;;;;;22.08;46.60;101735.09;5009503;28;20124;-43
2023/08/07 08:13:55;;;;;;;8.32;1.73;;;;;;;22.89;44.52;101732.38;5009394;28;20044;-45
2023/08/07 08:16:20;;;;;;;7.15;2.00;;;;;;;23.75;43.87;101739.94;5009525;28;20042;-44
2023/08/07 08:18:46;;;;;;;7.72;1.77;;;;;;;22.77;43.75;101745.97;5009981;28;20041;-44
2023/08/07 08:21:11;;;;;;;6.85;1.67;;;;;;;21.84;45.39;101736.38;5010108;28;20549;-46
2023/08/07 08:23:36;;;;;;;8.75;1.92;;;;;;;22.00;45.65;101753.81;5010997;28;20034;-44
2023/08/07 08:26:02;;;;;;;8.27;2.20;;;;;;;22.19;47.05;101755.19;5011125;28;20088;-45
2023/08/07 08:28:27;;;;;;;8.05;1.88;;;;;;;21.13;48.80;101748.25;5009790;28;20042;-45
2023/08/07 08:30:52;;;;;;;8.70;2.20;;;;;;;20.91;50.97;101767.16;5009610;28;20038;-44
2023/08/07 08:33:18;;;;;;;7.32;1.85;;;;;;;21.24;48.66;101760.47;5007199;28;20381;-48
2023/08/07 08:35:43;;;;;;;7.93;1.92;;;;;;;20.38;50.16;101759.06;5009446;28;20049;-45
2023/08/07 08:38:09;;;;;;;13.35;2.20;;;;;;;20.97;50.49;101760.91;5009009;28;20497;-45
2023/08/07 08:40:37;;;;;;;7.78;2.03;;;;;;;20.73;51.03;101772.75;5009228;28;20455;-44
2023/08/07 08:43:05;;;;;;;8.38;1.63;;;;;;;20.79;49.33;101766.47;5007318;28;20455;-48
2023/08/07 08:45:32;;;;;;;5.95;2.13;;;;;;;20.73;50.84;101774.50;5007903;28;20044;-46
2023/08/07 08:48:02;;;;;;;8.15;1.92;;;;;;;21.26;50.18;101773.72;5008184;28;20447;-45
2023/08/07 08:50:28;;;;;;;9.00;2.15;;;;;;;21.31;48.45;101782.47;5009036;28;20130;-44
2023/08/07 08:52:55;;;;;;;8.40;2.10;;;;;;;21.13;48.87;101786.25;4997418;28;20389;-45
2023/08/07 08:55:21;;;;;;;7.65;1.83;;;;;;;20.81;49.42;101785.84;5014768;28;20040;-48
2023/08/07 08:57:47;;;;;;;8.80;1.90;;;;;;;20.96;49.21;101781.22;5029579;28;20438;-44
2023/08/07 09:00:18;;;;;;;8.90;1.65;;;;;;;21.26;48.27;101784.31;5031136;28;20033;-44
2023/08/07 09:02:48;;;;;;;7.35;1.90;;;;;;;21.17;48.61;101782.69;5031596;28;20044;-45
2023/08/07 09:05:18;;;;;;;12.23;1.83;;;;;;;20.94;49.77;101782.13;5031437;28;20037;-47
2023/08/07 09:07:46;;;;;;;10.27;2.22;;;;;;;20.85;49.67;101787.59;5032165;28;20034;-47
2023/08/07 09:10:13;;;;;;;9.43;2.17;;;;;;;21.01;50.10;101792.63;5031041;28;20042;-47
2023/08/07 09:12:42;;;;;;;6.70;2.40;;;;;;;21.15;51.62;101786.25;5016306;28;20535;-44
2023/08/07 09:15:09;;;;;;;8.25;1.98;;;;;;;20.82;51.45;101793.78;5031285;28;20065;-45
2023/08/07 09:17:39;;;;;;;6.10;1.73;;;;;;;21.25;49.89;101791.41;5032034;28;20044;-46
2023/08/07 09:20:08;;;;;;;6.22;2.05;;;;;;;21.39;49.67;101792.06;5031545;28;20041;-44
2023/08/07 09:22:34;;;;;;;6.65;1.65;;;;;;;20.77;48.62;101800.94;5030443;28;20547;-44
2023/08/07 09:25:00;;;;;;;9.18;2.10;;;;;;;20.26;49.78;101798.00;5032582;28;20113;-43
2023/08/07 09:27:25;;;;;;;7.82;2.20;;;;;;;20.30;51.35;101804.19;5020320;28;20042;-45
2023/08/07 09:29:51;;;;;;;8.52;1.80;;;;;;;20.51;49.67;101801.28;5012560;28;20665;-45
2023/08/07 09:32:18;;;;;;;7.15;1.80;;;;;;;20.56;50.00;101798.56;5013496;28;20124;-48
2023/08/07 09:34:43;;;;;;;8.18;1.80;;;;;;;20.52;49.33;101803.03;5013288;28;20038;-42
2023/08/07 09:37:09;;;;;;;6.35;1.80;;;;;;;21.01;47.98;101810.31;5011168;28;20045;-46
2023/08/07 09:39:36;;;;;;;4.97;1.98;;;;;;;20.90;49.02;101807.81;5011047;28;20129;-46
2023/08/07 09:42:12;;;;;;;8.95;2.13;;;;;;;21.33;49.28;101810.72;5011106;28;20058;-46
2023/08/07 09:44:38;;;;;;;9.60;2.00;;;;;;;21.40;46.97;101806.19;5010153;28;20038;-44
2023/08/07 09:47:14;;;;;;;6.75;1.80;;;;;;;20.65;47.47;101820.53;5011237;28;20038;-47
2023/08/07 09:49:40;;;;;;;6.78;1.70;;;;;;;21.21;46.88;101813.56;5011798;28;20516;-47
2023/08/07 09:52:07;;;;;;;7.40;1.90;;;;;;;20.77;49.05;101813.31;5010527;28;20037;-41
2023/08/07 09:54:33;;;;;;;11.98;2.03;;;;;;;20.88;49.23;101814.91;5015905;28;20069;-45
2023/08/07 09:56:59;;;;;;;11.68;2.00;;;;;;;20.59;48.69;101820.59;5031525;28;20068;-45
2023/08/07 09:59:26;;;;;;;5.22;1.60;;;;;;;20.79;48.02;101825.66;5030785;28;20038;-48
2023/08/07 10:01:53;;;;;;;6.22;1.75;;;;;;;20.61;48.79;101828.53;5031164;28;20063;-50
2023/08/07 10:04:18;;;;;;;9.88;1.92;;;;;;;21.38;49.24;101829.22;5030231;28;20091;-45
2023/08/07 10:06:45;;;;;;;8.57;2.03;;;;;;;21.31;48.96;101824.91;5031158;28;20037;-44
2023/08/07 10:09:10;;;;;;;7.50;2.00;;;;;;;21.31;48.54;101831.09;5028713;28;20068;-46
2023/08/07 10:11:38;;;;;;;7.13;1.92;;;;;;;21.87;47.80;101826.59;5030882;28;20033;-45
2023/08/07 10:14:04;;;;;;;7.50;1.95;;;;;;;22.44;48.11;101837.06;5010951;28;20049;-43
2023/08/07 10:16:30;;;;;;;5.45;2.03;;;;;;;21.58;48.34;101839.50;5021897;28;20442;-45
2023/08/07 10:18:55;;;;;;;5.82;1.70;;;;;;;21.57;47.64;101835.09;5029482;28;20087;-44
2023/08/07 10:21:23;;;;;;;5.70;1.73;;;;;;;21.54;46.85;101828.06;5030826;28;20037;-46
2023/08/07 10:23:52;;;;;;;6.55;1.65;;;;;;;21.51;46.73;101837.84;5016213;28;20037;-42
2023/08/07 10:26:19;;;;;;;8.98;1.95;;;;;;;21.08;49.48;101838.50;5017668;28;20026;-45
2023/08/07 10:28:46;;;;;;;6.97;1.75;;;;;;;21.37;46.98;101849.56;5031253;28;20042;-43
2023/08/07 10:31:13;;;;;;;8.40;1.50;;;;;;;21.42;46.15;101847.69;5012970;28;20029;-45
2023/08/07 10:33:39;;;;;;;5.53;1.45;;;;;;;21.32;45.69;101847.88;5020066;28;20034;-45
2023/08/07 10:36:11;;;;;;;7.68;1.45;;;;;;;21.67;46.58;101842.88;5031697;28;20030;-44
2023/08/07 10:38:36;;;;;;;6.13;1.63;;;;;;;22.33;46.95;101842.56;5032841;28;20049;-48
2023/08/07 10:41:12;;;;;;;8.05;1.60;;;;;;;21.85;46.04;101839.00;5019519;28;20120;-48
2023/08/07 10:43:40;;;;;;;6.50;1.90;;;;;;;21.80;46.25;101848.84;5016229;28;20095;-50
2023/08/07 10:46:08;;;;;;;8.02;1.90;;;;;;;22.09;44.85;101840.38;5031710;28;20125;-46
2023/08/07 10:48:46;;;;;;;5.05;1.60;;;;;;;22.10;45.15;101853.63;5029926;28;20071;-44
2023/08/07 10:51:13;;;;;;;7.50;2.00;;;;;;;21.78;45.97;101847.97;5030835;28;20587;-44
2023/08/07 10:53:44;;;;;;;6.15;1.60;;;;;;;21.11;46.56;101859.63;5029510;28;20131;-46
2023/08/07 10:56:14;;;;;;;6.18;1.80;;;;;;;20.95;48.83;101851.03;5010921;28;20071;-45
2023/08/07 10:58:41;;;;;;;7.32;1.85;;;;;;;21.22;48.44;101846.28;5024808;28;20042;-44
2023/08/07 11:01:20;;;;;;;5.88;1.80;;;;;;;21.29;48.51;101839.94;5030187;28;20044;-45
2023/08/07 11:03:53;;;;;;;5.85;1.73;;;;;;;21.74;49.19;101843.66;5030468;28;20091;-44
2023/08/07 11:06:22;;;;;;;7.63;1.92;;;;;;;21.76;46.77;101842.72;5030531;28;20041;-46
2023/08/07 11:08:48;;;;;;;5.63;1.65;;;;;;;21.96;45.77;101854.78;5031348;28;20095;-44
2023/08/07 11:11:14;;;;;;;6.03;1.70;;;;;;;21.75;47.22;101851.59;5030469;28;20128;-43
2023/08/07 11:13:39;;;;;;;8.93;1.90;;;;;;;21.67;48.39;101855.25;5033163;28;20044;-46
2023/08/07 11:16:05;;;;;;;5.90;1.83;;;;;;;22.23;47.30;101857.81;5037675;28;20443;-44
2023/08/07 11:18:31;;;;;;;6.47;1.90;;;;;;;22.27;47.04;101858.63;5032539;28;20029;-44
2023/08/07 11:20:57;;;;;;;6.88;1.80;;;;;;;21.94;46.68;101859.22;5030852;28;20095;-44